Time;durP1;ratioP1;P1;durP2;ratioP2;P2;SDS_P1;SDS_P2;PMS_P1;PMS_P2;Temp;Humidity;BMP_temperature;BMP_pressure;BME280_temperature;BME280_humidity;BME280_pressure;Samples;Min_cycle;Max_cycle;Signal;HPM_P1;HPM_P2
2023/08/25 00:01:23;;;;;;;44.08;19.08;;;;;;;20.01;100.00;97068.25;5073547;28;20403;-71
2023/08/25 00:03:50;;;;;;;42.30;17.70;;;;;;;20.00;100.00;97072.03;5073785;28;20396;-71
2023/08/25 00:06:16;;;;;;;40.47;17.90;;;;;;;19.90;100.00;97072.41;5084384;28;20972;-72
2023/08/25 00:08:44;;;;;;;46.53;19.17;;;;;;;19.78;100.00;97080.28;5093957;28;20904;-72
2023/08/25 00:11:10;;;;;;;49.33;18.75;;;;;;;19.89;100.00;97081.56;5093510;28;20394;-72
2023/08/25 00:13:36;;;;;;;42.65;18.02;;;;;;;19.92;100.00;97064.81;5093877;28;20768;-72
2023/08/25 00:16:04;;;;;;;44.65;18.38;;;;;;;19.82;100.00;97068.63;5093717;28;20864;-72
2023/08/25 00:18:31;;;;;;;48.17;18.83;;;;;;;19.84;100.00;97082.53;5093895;28;20455;-72
2023/08/25 00:20:57;;;;;;;40.67;16.58;;;;;;;19.89;100.00;97078.88;5093673;28;20829;-72
2023/08/25 00:23:23;;;;;;;46.05;17.58;;;;;;;19.95;100.00;97078.38;5093572;28;20402;-71
2023/08/25 00:25:53;;;;;;;40.13;16.73;;;;;;;19.96;100.00;97077.28;5093557;28;20916;-71
2023/08/25 00:28:20;;;;;;;46.20;17.50;;;;;;;19.94;100.00;97074.13;5093617;28;20409;-72
2023/08/25 00:30:47;;;;;;;38.63;16.23;;;;;;;19.93;100.00;97072.53;5093512;28;20796;-72
2023/08/25 00:33:14;;;;;;;45.03;17.10;;;;;;;19.80;100.00;97068.13;5093440;28;20482;-72
2023/08/25 00:35:42;;;;;;;41.75;17.70;;;;;;;19.68;100.00;97071.47;5093381;28;20405;-72
2023/08/25 00:38:08;;;;;;;34.95;15.85;;;;;;;19.83;100.00;97058.66;5093591;28;20398;-71
2023/08/25 00:40:35;;;;;;;40.47;16.30;;;;;;;19.90;100.00;97057.06;5093271;28;20406;-71
2023/08/25 00:43:03;;;;;;;41.55;16.25;;;;;;;19.88;100.00;97045.84;5075893;28;20487;-72
2023/08/25 00:45:32;;;;;;;42.13;16.00;;;;;;;19.78;100.00;97045.38;5072888;28;20842;-71
2023/08/25 00:47:58;;;;;;;37.33;15.55;;;;;;;19.86;100.00;97041.88;5089699;28;20398;-71
2023/08/25 00:50:25;;;;;;;34.95;14.85;;;;;;;19.80;100.00;97037.78;5092928;28;20398;-71
2023/08/25 00:52:52;;;;;;;31.95;14.70;;;;;;;19.80;100.00;97037.78;5092964;28;20446;-71
2023/08/25 00:55:18;;;;;;;38.47;15.20;;;;;;;19.66;100.00;97033.41;5093008;28;20437;-72
2023/08/25 00:57:45;;;;;;;31.77;14.38;;;;;;;19.65;100.00;97034.50;5092931;28;20912;-72
2023/08/25 01:00:13;;;;;;;29.15;13.75;;;;;;;19.68;100.00;97030.41;5074254;28;20400;-72
2023/08/25 01:02:40;;;;;;;32.53;14.52;;;;;;;19.76;100.00;97034.19;5071962;28;20396;-72
2023/08/25 01:05:07;;;;;;;28.03;13.77;;;;;;;19.81;100.00;97034.00;5072639;28;20396;-72
2023/08/25 01:07:34;;;;;;;26.13;12.73;;;;;;;19.84;100.00;97028.81;5072624;28;20804;-71
2023/08/25 01:10:00;;;;;;;30.58;13.40;;;;;;;19.61;100.00;97038.94;5072465;28;20491;-72
2023/08/25 01:12:35;;;;;;;31.83;12.88;;;;;;;19.85;100.00;97038.41;5072409;28;20419;-72
2023/08/25 01:15:07;;;;;;;27.50;13.27;;;;;;;19.79;100.00;97028.94;5081125;28;20413;-72
2023/08/25 01:17:41;;;;;;;29.08;13.85;;;;;;;19.87;100.00;97030.03;5092630;28;20398;-72
2023/08/25 01:20:08;;;;;;;27.95;13.30;;;;;;;19.89;100.00;97035.88;5092507;28;20872;-72
2023/08/25 01:22:48;;;;;;;36.00;13.95;;;;;;;19.91;100.00;97039.84;5092552;28;20459;-72
2023/08/25 01:25:27;;;;;;;28.58;12.95;;;;;;;20.01;100.00;97038.69;5092405;28;20406;-71
2023/08/25 01:27:55;;;;;;;33.85;14.02;;;;;;;20.00;100.00;97032.53;5092559;28;20397;-71
2023/08/25 01:30:23;;;;;;;29.67;13.33;;;;;;;20.06;100.00;97030.47;5092130;28;20390;-71
2023/08/25 01:32:49;;;;;;;29.88;12.18;;;;;;;20.07;100.00;97034.75;5092263;28;20406;-72
2023/08/25 01:35:17;;;;;;;29.85;13.13;;;;;;;19.95;100.00;97035.41;5081635;28;20412;-71
2023/08/25 01:37:50;;;;;;;25.20;12.57;;;;;;;20.02;100.00;97030.31;5072025;28;20501;-72
2023/08/25 01:40:21;;;;;;;24.45;12.32;;;;;;;20.07;100.00;97032.06;5053885;28;20415;-72
2023/08/25 01:42:54;;;;;;;31.88;12.75;;;;;;;19.93;100.00;97034.13;5071926;28;20400;-73
2023/08/25 01:45:22;;;;;;;28.95;12.93;;;;;;;20.04;100.00;97036.16;5074904;28;20402;-72
2023/08/25 01:47:51;;;;;;;24.37;11.90;;;;;;;20.07;100.00;97037.44;5092138;28;20462;-73
2023/08/25 01:50:19;;;;;;;22.40;11.20;;;;;;;20.06;100.00;97031.28;5091801;28;20394;-72
2023/08/25 01:52:45;;;;;;;23.88;11.68;;;;;;;19.91;100.00;97037.16;5091785;28;20425;-72
2023/08/25 01:55:12;;;;;;;20.58;11.32;;;;;;;20.00;100.00;97023.69;5091980;28;20708;-72
2023/08/25 01:57:38;;;;;;;21.77;11.20;;;;;;;20.05;100.00;97023.53;5091862;28;20405;-73
2023/08/25 02:00:07;;;;;;;22.17;10.70;;;;;;;20.07;100.00;97034.75;5091221;28;20398;-73
2023/08/25 02:02:33;;;;;;;24.85;11.00;;;;;;;20.04;100.00;97033.50;5091584;28;20860;-73
2023/08/25 02:04:59;;;;;;;24.70;12.07;;;;;;;20.12;100.00;97026.50;5091730;28;20416;-72
2023/08/25 02:07:25;;;;;;;25.30;11.05;;;;;;;20.08;100.00;97020.19;5087894;28;20494;-72
2023/08/25 02:09:54;;;;;;;27.83;12.32;;;;;;;20.05;100.00;97028.91;5071605;28;20461;-72
2023/08/25 02:12:21;;;;;;;28.52;12.30;;;;;;;20.09;100.00;97029.81;5071111;28;20415;-72
2023/08/25 02:14:47;;;;;;;23.73;11.50;;;;;;;20.06;100.00;97022.44;5070444;28;20403;-72
2023/08/25 02:17:14;;;;;;;25.30;11.48;;;;;;;19.97;100.00;97018.97;5071122;28;20437;-72
2023/08/25 02:19:41;;;;;;;19.17;9.83;;;;;;;19.98;100.00;97015.19;5053292;28;20400;-72
2023/08/25 02:22:07;;;;;;;19.58;9.77;;;;;;;19.96;100.00;97014.69;5070816;28;20510;-72
2023/08/25 02:24:33;;;;;;;24.45;11.00;;;;;;;19.92;100.00;97019.16;5075929;28;20406;-72
2023/08/25 02:26:59;;;;;;;18.97;9.87;;;;;;;19.89;100.00;97015.19;5091203;28;20397;-72
2023/08/25 02:29:26;;;;;;;22.70;11.00;;;;;;;19.76;100.00;97026.13;5091356;28;20824;-73
2023/08/25 02:31:52;;;;;;;21.50;10.68;;;;;;;19.77;100.00;97016.97;5090994;28;20394;-72
2023/08/25 02:34:20;;;;;;;22.67;11.05;;;;;;;19.85;100.00;97014.25;5091064;28;20463;-72
2023/08/25 02:36:46;;;;;;;15.50;8.90;;;;;;;19.88;100.00;97010.13;5091192;28;20409;-72
2023/08/25 02:39:12;;;;;;;21.00;10.30;;;;;;;19.86;100.00;97007.75;5091024;28;20459;-71
2023/08/25 02:41:38;;;;;;;19.90;10.55;;;;;;;19.88;100.00;96999.38;5090913;28;20401;-72
2023/08/25 02:44:05;;;;;;;22.88;11.38;;;;;;;19.80;100.00;97003.66;5090993;28;20402;-72
2023/08/25 02:46:31;;;;;;;26.90;10.93;;;;;;;19.73;100.00;96999.91;5091008;28;20413;-72
2023/08/25 02:48:57;;;;;;;19.80;10.50;;;;;;;19.71;100.00;96997.53;5091038;28;20471;-72
2023/08/25 02:51:24;;;;;;;22.50;10.23;;;;;;;19.70;100.00;96998.63;5090530;28;20405;-73
2023/08/25 02:53:51;;;;;;;22.50;10.52;;;;;;;19.66;100.00;96989.66;5090847;28;20895;-73
2023/08/25 02:56:17;;;;;;;23.35;10.80;;;;;;;19.69;100.00;96987.13;5090697;28;20444;-73
2023/08/25 02:58:43;;;;;;;21.20;9.85;;;;;;;19.67;100.00;96986.66;5091008;28;20394;-72
2023/08/25 03:01:12;;;;;;;22.38;10.48;;;;;;;19.67;100.00;96983.97;5090472;28;20402;-73
2023/08/25 03:03:39;;;;;;;18.33;9.90;;;;;;;19.66;100.00;96982.38;5090807;28;20398;-73
2023/08/25 03:06:05;;;;;;;22.90;10.23;;;;;;;19.60;100.00;96975.59;5090481;28;20394;-73
2023/08/25 03:08:33;;;;;;;20.65;9.73;;;;;;;19.60;100.00;96974.81;5090715;28;20485;-73
2023/08/25 03:11:02;;;;;;;19.25;9.77;;;;;;;19.58;100.00;96977.03;5090309;28;20398;-73
2023/08/25 03:13:29;;;;;;;19.27;9.73;;;;;;;19.57;100.00;96976.22;5090552;28;20421;-73
2023/08/25 03:15:55;;;;;;;18.10;9.55;;;;;;;19.60;100.00;96980.19;5090595;28;20397;-73
2023/08/25 03:18:21;;;;;;;20.83;10.68;;;;;;;19.62;100.00;96970.69;5090520;28;20800;-72
2023/08/25 03:20:51;;;;;;;22.43;10.83;;;;;;;19.67;100.00;96967.84;5090276;28;20948;-73
2023/08/25 03:23:17;;;;;;;21.33;11.07;;;;;;;19.69;100.00;96965.63;5090590;28;20752;-73
2023/08/25 03:25:45;;;;;;;21.40;11.02;;;;;;;19.65;100.00;96966.56;5090233;28;20576;-73
2023/08/25 03:28:11;;;;;;;22.20;10.82;;;;;;;19.63;100.00;96961.53;5088658;28;20401;-72
2023/08/25 03:30:37;;;;;;;19.65;10.02;;;;;;;19.69;100.00;96954.09;5070098;28;20408;-72
2023/08/25 03:33:04;;;;;;;20.95;10.55;;;;;;;19.70;100.00;96952.97;5070004;28;20415;-72
2023/08/25 03:35:33;;;;;;;20.63;10.45;;;;;;;19.63;100.00;96956.16;5069948;28;20404;-72
2023/08/25 03:37:59;;;;;;;19.98;10.50;;;;;;;19.63;100.00;96952.66;5078592;28;20459;-72
2023/08/25 03:40:26;;;;;;;17.60;9.77;;;;;;;19.63;100.00;96950.78;5090229;28;20426;-72
2023/08/25 03:42:54;;;;;;;23.33;10.38;;;;;;;19.61;100.00;96952.22;5090233;28;20398;-72
2023/08/25 03:45:21;;;;;;;21.95;10.60;;;;;;;19.58;100.00;96939.44;5090133;28;20945;-72
2023/08/25 03:47:47;;;;;;;23.77;10.68;;;;;;;19.54;100.00;96943.88;5090297;28;20751;-72
2023/08/25 03:50:13;;;;;;;18.70;9.90;;;;;;;19.55;100.00;96927.41;5089727;28;20406;-72
2023/08/25 03:52:39;;;;;;;20.20;9.63;;;;;;;19.54;100.00;96930.44;5090043;28;20961;-72
2023/08/25 03:55:06;;;;;;;21.23;9.98;;;;;;;19.53;100.00;96924.28;5090097;28;20398;-72
2023/08/25 03:57:32;;;;;;;18.10;10.27;;;;;;;19.51;100.00;96920.34;5085348;28;20410;-72
2023/08/25 04:00:00;;;;;;;21.52;10.90;;;;;;;19.50;100.00;96914.19;5069726;28;20808;-72
2023/08/25 04:02:26;;;;;;;20.25;10.35;;;;;;;19.43;100.00;96924.59;5069828;28;20461;-72
2023/08/25 04:04:52;;;;;;;19.45;10.38;;;;;;;19.49;100.00;96915.28;5051914;28;20411;-72
2023/08/25 04:07:19;;;;;;;23.43;10.93;;;;;;;19.50;100.00;96910.69;5069841;28;22032;-72
2023/08/25 04:09:45;;;;;;;22.65;10.60;;;;;;;19.49;100.00;96901.06;5069804;28;20457;-72
2023/08/25 04:12:11;;;;;;;20.45;10.30;;;;;;;19.50;100.00;96897.28;5069423;28;20395;-72
2023/08/25 04:14:38;;;;;;;24.15;11.55;;;;;;;19.44;100.00;96895.84;5069867;28;20769;-72
2023/08/25 04:17:05;;;;;;;26.00;11.38;;;;;;;19.48;100.00;96889.53;5069652;28;20491;-72
2023/08/25 04:19:31;;;;;;;19.30;10.63;;;;;;;19.43;100.00;96894.28;5051731;28;20485;-72
2023/08/25 04:21:59;;;;;;;24.92;11.75;;;;;;;19.45;100.00;96892.84;5069541;28;20400;-72
2023/08/25 04:24:25;;;;;;;21.80;11.18;;;;;;;19.47;100.00;96895.25;5069778;28;20903;-72
2023/08/25 04:26:53;;;;;;;22.65;11.02;;;;;;;19.41;100.00;96894.59;5069730;28;20404;-72
2023/08/25 04:29:19;;;;;;;22.35;10.63;;;;;;;19.43;100.00;96878.16;5080866;28;20479;-72
2023/08/25 04:31:45;;;;;;;22.25;11.07;;;;;;;19.19;100.00;96886.72;5089623;28;20406;-72
2023/08/25 04:34:13;;;;;;;18.30;9.60;;;;;;;19.36;100.00;96889.38;5079569;28;20469;-72
2023/08/25 04:36:39;;;;;;;16.60;9.60;;;;;;;19.39;100.00;96887.97;5069564;28;20407;-72
2023/08/25 04:39:05;;;;;;;22.40;10.00;;;;;;;19.41;100.00;96885.75;5071989;28;20842;-72
2023/08/25 04:41:32;;;;;;;17.88;9.45;;;;;;;19.41;100.00;96883.06;5077477;28;20398;-72
2023/08/25 04:43:58;;;;;;;18.00;9.02;;;;;;;19.38;100.00;96876.44;5093216;28;20402;-72
2023/08/25 04:46:24;;;;;;;20.27;10.20;;;;;;;19.35;100.00;96871.72;5093172;28;20406;-72
2023/08/25 04:48:50;;;;;;;18.20;9.07;;;;;;;19.31;100.00;96866.22;5093345;28;20491;-72
2023/08/25 04:51:18;;;;;;;17.30;9.15;;;;;;;19.29;100.00;96854.22;5092839;28;20406;-72
2023/08/25 04:53:44;;;;;;;16.77;9.60;;;;;;;19.25;100.00;96864.00;5093165;28;20417;-72
2023/08/25 04:56:11;;;;;;;12.88;8.43;;;;;;;19.22;100.00;96873.47;5092884;28;20406;-73
2023/08/25 04:58:37;;;;;;;19.67;9.43;;;;;;;19.17;100.00;96870.94;5087677;28;20432;-72
2023/08/25 05:01:04;;;;;;;17.93;9.20;;;;;;;19.15;100.00;96867.81;5054281;28;20832;-73
2023/08/25 05:03:30;;;;;;;17.20;9.90;;;;;;;19.12;100.00;96876.50;5072774;28;20453;-73
2023/08/25 05:05:56;;;;;;;15.73;8.55;;;;;;;19.13;100.00;96871.91;5072684;28;20836;-72
2023/08/25 05:08:24;;;;;;;19.70;9.10;;;;;;;19.13;100.00;96864.66;5072262;28;20433;-72
2023/08/25 05:10:50;;;;;;;20.60;9.65;;;;;;;19.13;100.00;96850.44;5072318;28;20395;-72
2023/08/25 05:13:16;;;;;;;18.87;9.53;;;;;;;19.17;100.00;96851.41;5072328;28;20426;-72
2023/08/25 05:15:43;;;;;;;18.38;10.23;;;;;;;19.28;100.00;96839.22;5072402;28;20406;-72
2023/08/25 05:18:09;;;;;;;17.95;10.23;;;;;;;19.33;100.00;96847.06;5072330;28;20863;-71
2023/08/25 05:20:35;;;;;;;15.68;9.23;;;;;;;19.45;100.00;96844.53;5072301;28;20441;-72
2023/08/25 05:23:02;;;;;;;20.17;9.40;;;;;;;19.51;100.00;96845.97;5071990;28;20881;-72
2023/08/25 05:25:30;;;;;;;18.92;9.20;;;;;;;19.56;100.00;96853.03;5072268;28;20483;-72
2023/08/25 05:27:56;;;;;;;19.17;9.55;;;;;;;19.64;100.00;96854.91;5072258;28;20407;-72
2023/08/25 05:30:22;;;;;;;18.08;9.20;;;;;;;19.84;100.00;96853.41;5071911;28;20407;-72
2023/08/25 05:32:48;;;;;;;17.53;9.30;;;;;;;19.89;100.00;96845.97;5071925;28;20408;-72
2023/08/25 05:35:14;;;;;;;17.40;9.05;;;;;;;20.00;100.00;96871.31;5071964;28;20403;-72
2023/08/25 05:37:41;;;;;;;19.85;9.10;;;;;;;20.14;100.00;96854.22;5071996;28;20439;-72
2023/08/25 05:40:08;;;;;;;18.60;8.70;;;;;;;20.23;100.00;96857.59;5071857;28;20404;-72
2023/08/25 05:42:37;;;;;;;12.48;7.10;;;;;;;20.36;100.00;96862.78;5071834;28;20427;-72
2023/08/25 05:45:04;;;;;;;17.30;7.47;;;;;;;20.45;100.00;96885.00;5071743;28;20888;-72
2023/08/25 05:47:30;;;;;;;13.93;7.60;;;;;;;20.53;100.00;96904.09;5071740;28;20498;-71
2023/08/25 05:49:57;;;;;;;14.83;7.20;;;;;;;20.55;100.00;96916.09;5071679;28;20776;-72
2023/08/25 05:52:24;;;;;;;11.07;7.13;;;;;;;20.57;100.00;96926.53;5071509;28;20399;-72
2023/08/25 05:54:50;;;;;;;13.93;7.18;;;;;;;20.55;100.00;96942.22;5071736;28;20893;-72
2023/08/25 05:57:16;;;;;;;13.65;7.03;;;;;;;20.55;100.00;96947.59;5071653;28;20403;-72
2023/08/25 05:59:44;;;;;;;13.90;7.78;;;;;;;20.42;100.00;96952.09;5071721;28;20449;-72
2023/08/25 06:02:10;;;;;;;12.05;7.28;;;;;;;20.40;100.00;96952.41;5071195;28;20406;-72
2023/08/25 06:04:36;;;;;;;12.60;7.10;;;;;;;20.41;100.00;96959.38;5071566;28;20431;-74
2023/08/25 06:07:02;;;;;;;14.40;8.05;;;;;;;20.38;100.00;96969.97;5080219;28;20960;-73
2023/08/25 06:09:28;;;;;;;13.50;7.43;;;;;;;20.38;100.00;96992.28;5091732;28;20467;-73
2023/08/25 06:11:54;;;;;;;11.43;7.25;;;;;;;20.35;100.00;97060.16;5091502;28;20951;-73
2023/08/25 06:14:21;;;;;;;15.38;8.10;;;;;;;20.21;100.00;97147.44;5091413;28;20414;-73
2023/08/25 06:16:48;;;;;;;15.98;7.85;;;;;;;20.26;100.00;97121.16;5091594;28;20941;-73
2023/08/25 06:19:15;;;;;;;13.75;7.47;;;;;;;20.29;100.00;97184.25;5091403;28;20398;-72
2023/08/25 06:21:41;;;;;;;15.85;8.77;;;;;;;20.23;100.00;97182.81;5091218;28;20401;-72
2023/08/25 06:24:07;;;;;;;16.75;8.27;;;;;;;20.19;100.00;97173.84;5091427;28;20857;-73
2023/08/25 06:26:33;;;;;;;15.43;8.43;;;;;;;20.31;100.00;97188.19;5091319;28;20402;-72
2023/08/25 06:28:59;;;;;;;19.55;9.38;;;;;;;20.26;100.00;97177.63;5091183;28;20940;-73
2023/08/25 06:31:30;;;;;;;17.23;9.05;;;;;;;20.31;100.00;97174.75;5091014;28;20908;-73
2023/08/25 06:33:57;;;;;;;15.30;8.97;;;;;;;20.29;100.00;97185.06;5091182;28;20410;-73
2023/08/25 06:36:23;;;;;;;16.17;8.45;;;;;;;20.24;100.00;97184.41;5070834;28;20407;-73
2023/08/25 06:38:49;;;;;;;13.70;8.23;;;;;;;20.21;100.00;97190.44;5086494;28;20462;-73
2023/08/25 06:41:16;;;;;;;15.90;9.68;;;;;;;20.14;100.00;97192.81;5090721;28;20405;-73
2023/08/25 06:43:42;;;;;;;17.77;10.18;;;;;;;20.17;100.00;97192.97;5091156;28;20398;-71
2023/08/25 06:46:08;;;;;;;18.27;8.80;;;;;;;20.12;100.00;97182.38;5090858;28;20406;-73
2023/08/25 06:48:34;;;;;;;13.75;8.90;;;;;;;20.09;100.00;97185.69;5091034;28;20830;-71
2023/08/25 06:51:02;;;;;;;20.17;9.47;;;;;;;20.07;100.00;97182.56;5073592;28;20406;-73
2023/08/25 06:53:28;;;;;;;21.95;10.55;;;;;;;19.88;100.00;97182.84;5070679;28;20774;-73
2023/08/25 06:55:54;;;;;;;54.63;12.52;;;;;;;19.60;100.00;97181.56;5070500;28;20403;-73
2023/08/25 06:58:20;;;;;;;23.00;10.85;;;;;;;19.35;100.00;97172.31;5081982;28;20402;-72
2023/08/25 07:00:47;;;;;;;23.98;11.52;;;;;;;19.19;100.00;97166.59;5090097;28;20497;-72
2023/08/25 07:03:13;;;;;;;29.00;13.07;;;;;;;19.04;100.00;97144.75;5090742;28;20417;-72
2023/08/25 07:05:40;;;;;;;30.45;13.38;;;;;;;18.96;100.00;97140.94;5072499;28;20402;-73
2023/08/25 07:08:08;;;;;;;31.92;13.98;;;;;;;18.91;100.00;97141.91;5072884;28;20785;-72
2023/08/25 07:10:34;;;;;;;38.55;15.45;;;;;;;18.83;100.00;97133.81;5070363;28;20395;-72
2023/08/25 07:13:01;;;;;;;33.23;13.73;;;;;;;18.78;100.00;97124.03;5052231;28;20507;-72
2023/08/25 07:15:27;;;;;;;32.53;14.02;;;;;;;18.76;100.00;97139.63;5070211;28;20419;-72
2023/08/25 07:17:53;;;;;;;28.30;12.13;;;;;;;18.77;100.00;97143.09;5070465;28;20418;-72
2023/08/25 07:20:19;;;;;;;41.35;13.65;;;;;;;18.79;100.00;97152.44;5070084;28;20465;-71
2023/08/25 07:22:46;;;;;;;32.95;13.30;;;;;;;18.73;100.00;97185.81;5084976;28;20401;-71
2023/08/25 07:25:13;;;;;;;34.57;12.77;;;;;;;18.67;100.00;97208.50;5088665;28;20411;-72
2023/08/25 07:27:40;;;;;;;38.05;13.98;;;;;;;18.59;100.00;97222.66;5070249;28;20901;-72
2023/08/25 07:30:07;;;;;;;36.70;12.73;;;;;;;18.54;100.00;97225.44;5079119;28;20894;-72
2023/08/25 07:32:33;;;;;;;28.23;12.00;;;;;;;18.53;100.00;97200.50;5089902;28;20433;-73
2023/08/25 07:34:59;;;;;;;37.15;14.38;;;;;;;18.53;100.00;97239.94;5090083;28;20398;-72
2023/08/25 07:37:25;;;;;;;44.13;16.13;;;;;;;18.46;100.00;97245.72;5086435;28;20883;-73
2023/08/25 07:39:53;;;;;;;54.55;18.40;;;;;;;18.44;100.00;97269.34;5069945;28;20482;-73
2023/08/25 07:42:23;;;;;;;57.95;19.95;;;;;;;18.40;100.00;97251.50;5069861;28;20886;-73
2023/08/25 07:44:49;;;;;;;55.22;18.77;;;;;;;18.37;100.00;97255.59;5069770;28;20460;-72
2023/08/25 07:47:16;;;;;;;44.35;16.98;;;;;;;18.36;100.00;97245.16;5069699;28;20396;-73
2023/08/25 07:49:43;;;;;;;40.57;14.70;;;;;;;18.36;100.00;97294.19;5069906;28;20457;-72
2023/08/25 07:52:09;;;;;;;45.50;17.33;;;;;;;18.31;100.00;97321.13;5069411;28;20415;-73
2023/08/25 07:54:35;;;;;;;53.22;18.23;;;;;;;18.31;100.00;97314.97;5074731;28;20888;-73
2023/08/25 07:57:01;;;;;;;55.80;17.17;;;;;;;18.33;100.00;97305.53;5089761;28;20412;-72
2023/08/25 07:59:29;;;;;;;39.67;15.50;;;;;;;18.36;100.00;97298.75;5083490;28;20415;-72
2023/08/25 08:01:55;;;;;;;34.63;14.25;;;;;;;18.39;100.00;97290.91;5074098;28;20411;-72
2023/08/25 08:04:21;;;;;;;30.60;11.88;;;;;;;18.44;100.00;97285.44;5079583;28;20766;-72
2023/08/25 08:06:49;;;;;;;29.05;11.82;;;;;;;18.47;100.00;97286.72;5082724;28;20405;-71
2023/08/25 08:09:15;;;;;;;34.90;12.02;;;;;;;18.46;100.00;97287.81;5084837;28;20397;-71
2023/08/25 08:11:41;;;;;;;33.30;11.93;;;;;;;18.44;100.00;97285.44;5076765;28;20393;-72
2023/08/25 08:14:07;;;;;;;32.95;12.63;;;;;;;18.44;100.00;97260.50;5075396;28;20452;-72
2023/08/25 08:16:35;;;;;;;39.50;12.40;;;;;;;18.42;100.00;97282.25;5093816;28;20402;-73
2023/08/25 08:19:02;;;;;;;39.43;12.67;;;;;;;18.40;100.00;97284.47;5093852;28;20443;-72
2023/08/25 08:21:28;;;;;;;43.72;14.60;;;;;;;18.35;100.00;97289.94;5085283;28;20461;-71
2023/08/25 08:23:55;;;;;;;52.40;16.55;;;;;;;18.33;100.00;97294.03;5073695;28;20395;-72
2023/08/25 08:26:22;;;;;;;40.03;14.35;;;;;;;18.33;100.00;97296.72;5073732;28;20490;-72
2023/08/25 08:28:48;;;;;;;38.90;13.35;;;;;;;18.34;100.00;97299.09;5076018;28;20404;-71
2023/08/25 08:31:18;;;;;;;32.60;12.93;;;;;;;18.36;100.00;97288.03;5093607;28;20496;-72
2023/08/25 08:33:47;;;;;;;71.03;13.77;;;;;;;18.38;100.00;97256.38;5092212;28;20445;-73
2023/08/25 08:36:15;;;;;;;41.95;14.93;;;;;;;18.34;100.00;97234.78;5081848;28;20402;-73
2023/08/25 08:38:41;;;;;;;38.88;13.75;;;;;;;18.33;100.00;97192.97;5082839;28;20398;-73
2023/08/25 08:41:09;;;;;;;29.05;12.00;;;;;;;18.36;100.00;97178.16;5080909;28;20415;-73
2023/08/25 08:43:41;;;;;;;38.28;12.25;;;;;;;18.40;100.00;97176.47;5092059;28;20394;-73
2023/08/25 08:46:08;;;;;;;24.67;10.27;;;;;;;18.45;100.00;97161.03;5085658;28;20485;-73
2023/08/25 08:48:36;;;;;;;33.42;10.63;;;;;;;18.47;100.00;97124.00;5086508;28;20491;-73
2023/08/25 08:51:06;;;;;;;28.13;10.60;;;;;;;18.50;100.00;97095.78;5083954;28;20743;-74
2023/08/25 08:53:32;;;;;;;23.55;10.23;;;;;;;18.51;100.00;97100.06;5083424;28;20422;-74
2023/08/25 08:56:01;;;;;;;25.92;9.95;;;;;;;18.49;100.00;97075.47;5091439;28;20530;-74
2023/08/25 08:58:28;;;;;;;25.42;9.95;;;;;;;18.47;100.00;97088.38;5080587;28;20897;-74
2023/08/25 09:00:56;;;;;;;31.70;11.32;;;;;;;18.46;100.00;97068.81;5084164;28;20498;-74
2023/08/25 09:03:29;;;;;;;50.92;15.93;;;;;;;18.40;100.00;97069.28;5088227;28;20393;-74
2023/08/25 09:05:59;;;;;;;46.67;16.03;;;;;;;18.42;100.00;97099.22;5082062;28;20407;-74
2023/08/25 09:08:27;;;;;;;55.08;17.70;;;;;;;18.43;100.00;97117.66;5084701;28;20400;-74
2023/08/25 09:10:54;;;;;;;41.85;14.98;;;;;;;18.46;100.00;97100.19;5076656;28;20890;-74
2023/08/25 09:13:20;;;;;;;53.38;17.17;;;;;;;18.48;100.00;97096.13;5076756;28;20486;-73
2023/08/25 09:16:09;;;;;;;37.65;14.40;;;;;;;18.52;100.00;97099.75;5079629;28;20420;-73
2023/08/25 09:18:42;;;;;;;59.67;20.00;;;;;;;18.47;100.00;97081.13;5059710;28;20441;-73
2023/08/25 09:21:47;;;;;;;57.17;19.52;;;;;;;18.48;100.00;97066.63;5082633;28;20481;-73
2023/08/25 09:24:59;;;;;;;;;;;;;;;;;;;;;
2023/08/25 09:28:09;;;;;;;51.38;17.65;;;;;;;18.70;100.00;97065.78;5071234;28;20871;-73
2023/08/25 09:30:56;;;;;;;47.05;17.95;;;;;;;18.83;100.00;97035.38;4976543;28;20498;-73
2023/08/25 09:36:26;;;;;;;58.67;20.35;;;;;;;18.91;100.00;97023.09;5042966;28;20392;-72
2023/08/25 09:38:53;;;;;;;46.50;17.15;;;;;;;19.05;100.00;97029.09;5073070;28;20494;-72
2023/08/25 09:41:24;;;;;;;58.60;19.75;;;;;;;19.17;100.00;97042.66;5083640;28;20484;-72
2023/08/25 09:43:55;;;;;;;57.90;20.35;;;;;;;19.20;100.00;97042.06;5079939;28;20384;-72
2023/08/25 09:46:26;;;;;;;70.38;22.27;;;;;;;19.11;100.00;97035.88;5079243;28;20751;-73
2023/08/25 09:48:53;;;;;;;46.28;16.90;;;;;;;19.31;100.00;97032.59;5080408;28;20397;-72
2023/08/25 09:51:20;;;;;;;55.92;18.95;;;;;;;19.33;100.00;97024.22;5083357;28;20406;-72
2023/08/25 09:53:49;;;;;;;51.17;16.23;;;;;;;19.46;100.00;97036.72;5078739;28;20427;-72
2023/08/25 09:56:15;;;;;;;37.28;14.57;;;;;;;19.59;100.00;97046.53;5076851;28;20779;-72
2023/08/25 09:58:43;;;;;;;51.65;16.90;;;;;;;19.67;100.00;97037.66;5080177;28;20394;-73
2023/08/25 10:01:10;;;;;;;36.90;14.05;;;;;;;19.74;100.00;97044.44;5082738;28;20414;-73
2023/08/25 10:03:37;;;;;;;27.73;11.73;;;;;;;19.85;100.00;97045.69;5081917;28;20417;-73
2023/08/25 10:06:04;;;;;;;26.42;10.52;;;;;;;19.95;100.00;97040.78;5081148;28;20457;-73
2023/08/25 10:08:32;;;;;;;21.67;9.38;;;;;;;20.06;100.00;97057.34;5079086;28;20414;-72
2023/08/25 10:10:59;;;;;;;15.70;7.57;;;;;;;20.18;100.00;97059.38;5081227;28;20486;-72
2023/08/25 10:13:28;;;;;;;19.23;8.13;;;;;;;20.28;100.00;97045.59;5080140;28;20413;-72
2023/08/25 10:16:00;;;;;;;15.13;7.05;;;;;;;20.44;100.00;97049.38;5068056;28;20735;-72
2023/08/25 10:18:29;;;;;;;28.83;10.60;;;;;;;20.36;100.00;97045.59;5084963;28;20795;-73
2023/08/25 10:20:57;;;;;;;23.15;8.93;;;;;;;20.48;100.00;97034.94;5080152;28;20400;-73
2023/08/25 10:23:25;;;;;;;21.40;8.27;;;;;;;20.39;100.00;97036.88;5088092;28;20400;-72
2023/08/25 10:25:51;;;;;;;13.50;5.82;;;;;;;20.61;100.00;97022.38;5083021;28;20480;-73
2023/08/25 10:28:18;;;;;;;14.40;6.72;;;;;;;20.64;100.00;97045.16;5086763;28;20414;-72
2023/08/25 10:30:45;;;;;;;13.20;6.00;;;;;;;20.63;100.00;97043.56;5078533;28;20400;-73
2023/08/25 10:33:13;;;;;;;10.13;5.82;;;;;;;20.64;100.00;97056.69;5078215;28;20812;-74
2023/08/25 10:35:41;;;;;;;8.53;5.10;;;;;;;20.62;100.00;97058.91;5081733;28;20978;-74
2023/08/25 10:38:36;;;;;;;11.05;5.40;;;;;;;20.56;100.00;97070.19;5079693;28;20407;-74
2023/08/25 10:41:17;;;;;;;14.75;6.65;;;;;;;20.43;100.00;97061.22;5081464;28;20499;-73
2023/08/25 10:43:50;;;;;;;12.75;6.82;;;;;;;20.45;100.00;97070.53;5076959;28;20917;-73
2023/08/25 10:46:19;;;;;;;13.23;6.37;;;;;;;20.39;100.00;97066.44;5084084;28;20754;-73
2023/08/25 10:48:48;;;;;;;11.18;5.72;;;;;;;20.41;100.00;97084.94;5083075;28;20397;-73
2023/08/25 10:51:20;;;;;;;16.33;7.25;;;;;;;20.30;100.00;97079.09;5079677;28;20808;-72
2023/08/25 10:53:49;;;;;;;16.58;7.78;;;;;;;20.27;100.00;97074.38;5079365;28;20410;-71
2023/08/25 10:56:23;;;;;;;12.47;6.57;;;;;;;20.25;100.00;97067.72;5081433;28;20416;-71
2023/08/25 10:58:57;;;;;;;11.15;5.50;;;;;;;20.32;100.00;97068.03;5080720;28;20401;-71
2023/08/25 11:01:25;;;;;;;11.32;5.93;;;;;;;20.37;100.00;97065.19;5084066;28;20418;-70
2023/08/25 11:04:06;;;;;;;12.98;6.18;;;;;;;20.42;100.00;97063.13;5078376;28;20485;-71
2023/08/25 11:06:43;;;;;;;13.05;6.40;;;;;;;20.51;100.00;97057.72;5085666;28;20397;-70
2023/08/25 11:09:30;;;;;;;15.07;7.20;;;;;;;20.48;100.00;97045.69;5079715;28;20378;-71
2023/08/25 11:11:58;;;;;;;17.20;7.60;;;;;;;20.44;100.00;97052.84;5079378;28;20427;-71
2023/08/25 11:14:28;;;;;;;14.40;7.00;;;;;;;20.45;100.00;97048.22;5086901;28;20512;-71
2023/08/25 11:16:55;;;;;;;19.92;7.97;;;;;;;20.43;100.00;97028.97;5082599;28;20410;-71
2023/08/25 11:19:26;;;;;;;18.58;8.70;;;;;;;20.37;100.00;97039.09;5085150;28;20471;-72
2023/08/25 11:21:57;;;;;;;16.33;8.48;;;;;;;20.44;100.00;97027.84;5077674;28;21188;-72